Portada
METAR-TAF:

METAR-TAF

Aeroports :

Siem Reap, Cambodja

latitud: 13-22N, longitud: 103-51E, altitud: 15 m

Observació

L'informe es va fer fa 14 minuts, a les 22:00 UTC
Vent 2 kt del Est
Temperatura 27°C
Humitat 94%
Pressió 1008 hPa
Visibilitat: 9000 m
Núvols disperses a una alçada de 1500 ft
Núvols disperses a una alçada de 4000 ft

METAR: VDSR 252200Z 08002KT 9000 SCT015 SCT040 27/26 Q1008

Hora: 05:14 (22:14 UTC)

Pronòstic

L'informe es va fer fa 5 hores i 14 minuts, a les 17:00 UTC
Pronòstic vàlid del 25 a les 18 UTC al 26 a les 12 UTC
Vent 6 kt del Sud-Oest
Visibilitat 10 km o més
Núvols disperses a una alçada de 1700 ft
Núvols disperses a una alçada de 4000 ft
Temporalment
l' 26 a les 07 UTC al 26 a les 11 UTC
Núvols disperses a una alçada de 1500 ft
Escasses núvols a una alçada de 1700 ft, Cumulonimbus.
Cel ennuvolat a una alçada de 4000 ft

TAF: VDSR 251700Z 2518/2612 23006KT 9999 SCT017 SCT040 TEMPO 2607/2611 SCT015 FEW017CB BKN040

Observacions i pronòstics meteorològics de més de 4000 aeroports (METAR i TAF).

Les estacions disponibles són els punts grocs i vermells al mapa.

Posi el ratolí al punt desitjat per veure el nom de l'estació.

Feu clic per veure les observacions i els pronòstics meteorològics.

Per canviar el mapa: feu clic els botons verds amb una creu de color negre per apropar; al botó verd amb un guió per allunyar la imatge; o en les fletxes verdes per a mapes adjacents.


METAR-TAF: